createdAt,value
2023-06-01T00:05:03.310Z,52.50
2023-06-01T00:10:11.832Z,53.07
2023-06-01T00:15:19.262Z,55.03
2023-06-01T00:20:30.076Z,53.45
2023-06-01T00:25:40.498Z,52.05
2023-06-01T00:30:47.894Z,51.43
2023-06-01T00:35:55.761Z,50.73
2023-06-01T00:41:03.431Z,51.13
2023-06-01T00:46:11.376Z,51.03
2023-06-01T00:51:18.713Z,50.70
2023-06-01T00:56:27.643Z,50.93
2023-06-01T01:01:38.630Z,51.07
2023-06-01T01:07:22.144Z,50.35
2023-06-01T01:12:47.234Z,50.03
2023-06-01T01:17:58.608Z,49.73
2023-06-01T01:23:39.263Z,49.80
2023-06-01T01:28:56.889Z,50.10
2023-06-01T01:34:06.492Z,51.67
2023-06-01T01:39:13.788Z,50.93
2023-06-01T01:44:21.543Z,50.53
2023-06-01T01:49:42.306Z,50.73
2023-06-01T01:54:54.173Z,50.33
2023-06-01T02:00:02.038Z,55.10
2023-06-01T02:05:11.938Z,50.27
2023-06-01T02:10:19.246Z,51.10
2023-06-01T02:15:27.971Z,49.37
2023-06-01T02:20:36.403Z,50.07
2023-06-01T02:25:43.770Z,50.17
2023-06-01T02:35:58.101Z,50.03
2023-06-01T02:41:05.008Z,49.40
2023-06-01T02:51:20.653Z,49.43
2023-06-01T02:56:28.566Z,50.38
2023-06-01T03:01:37.382Z,49.67
2023-06-01T03:06:44.811Z,49.90
2023-06-01T03:11:52.322Z,50.00
2023-06-01T03:17:00.056Z,50.40
2023-06-01T03:22:07.140Z,49.40
2023-06-01T03:27:15.620Z,49.50
2023-06-01T03:32:22.454Z,50.23
2023-06-01T03:37:32.851Z,49.88
2023-06-01T03:42:50.457Z,50.05
2023-06-01T03:47:57.785Z,49.80
2023-06-01T03:53:04.464Z,49.93
2023-06-01T03:58:12.233Z,50.03
2023-06-01T04:03:21.752Z,50.33
2023-06-01T04:08:29.599Z,50.50
2023-06-01T04:13:36.474Z,50.83
2023-06-01T04:18:45.593Z,51.13
2023-06-01T04:23:53.310Z,51.00
2023-06-01T04:29:02.182Z,52.27
2023-06-01T04:34:11.571Z,51.67
2023-06-01T04:39:19.041Z,51.60
2023-06-01T04:44:27.623Z,52.40
2023-06-01T04:54:41.851Z,52.90
2023-06-01T04:59:49.005Z,53.43
2023-06-01T05:04:56.420Z,52.10
2023-06-01T05:10:05.187Z,51.80
2023-06-01T05:15:13.072Z,52.37
2023-06-01T05:20:20.056Z,53.30
2023-06-01T05:25:29.089Z,53.08
2023-06-01T05:30:37.220Z,52.97
2023-06-01T05:35:44.166Z,53.08
2023-06-01T05:40:51.105Z,53.37
2023-06-01T05:45:57.919Z,53.90
2023-06-01T05:51:05.070Z,53.97
2023-06-01T05:56:13.805Z,55.63
2023-06-01T06:01:21.616Z,54.30
2023-06-01T06:06:29.375Z,55.27
2023-06-01T06:11:36.643Z,54.67
2023-06-01T06:16:45.560Z,54.55
2023-06-01T06:21:53.097Z,54.65
2023-06-01T06:27:02.164Z,54.83
2023-06-01T06:32:10.721Z,54.43
2023-06-01T06:37:17.988Z,53.93
2023-06-01T06:42:29.610Z,55.10
2023-06-01T06:47:36.661Z,54.85
2023-06-01T06:52:43.657Z,54.65
2023-06-01T06:57:50.770Z,54.67
2023-06-01T07:03:00.427Z,55.20
2023-06-01T07:08:07.562Z,55.13
2023-06-01T07:13:15.139Z,54.80
2023-06-01T07:18:23.113Z,54.37
2023-06-01T07:23:31.694Z,54.98
2023-06-01T07:28:39.310Z,54.50
2023-06-01T07:33:47.888Z,55.25
2023-06-01T07:38:55.202Z,55.23
2023-06-01T07:44:02.344Z,55.73
2023-06-01T07:49:11.473Z,55.97
2023-06-01T07:54:18.405Z,55.33
2023-06-01T07:59:26.251Z,56.43
2023-06-01T08:04:35.270Z,55.13
2023-06-01T08:09:44.158Z,55.53
2023-06-01T08:14:53.445Z,55.40
2023-06-01T08:20:00.251Z,55.73
2023-06-01T08:25:08.723Z,55.33
2023-06-01T08:30:15.897Z,55.33
2023-06-01T08:35:23.672Z,55.83
2023-06-01T08:40:31.995Z,56.93
2023-06-01T08:45:41.512Z,55.53
2023-06-01T08:50:52.374Z,56.17
2023-06-01T08:56:01.951Z,55.73
2023-06-01T09:01:09.599Z,56.53
2023-06-01T09:06:16.675Z,56.80
2023-06-01T09:11:25.323Z,56.00
2023-06-01T09:16:41.481Z,56.12
2023-06-01T09:22:01.847Z,56.50
2023-06-01T09:27:09.889Z,56.55
2023-06-01T09:32:22.765Z,57.17
2023-06-01T09:37:30.424Z,56.83
2023-06-01T09:42:38.604Z,57.25
2023-06-01T09:47:45.658Z,56.77
2023-06-01T09:53:03.334Z,56.77
2023-06-01T09:58:30.069Z,56.77
2023-06-01T10:03:38.049Z,57.30
2023-06-01T10:08:46.832Z,57.33
2023-06-01T10:13:54.272Z,57.38
2023-06-01T10:19:02.150Z,57.97
2023-06-01T10:24:11.164Z,56.83
2023-06-01T10:29:21.442Z,57.20
2023-06-01T10:34:47.250Z,57.50
2023-06-01T10:39:56.268Z,57.95
2023-06-01T10:45:05.160Z,57.53
2023-06-01T10:50:16.553Z,57.77
2023-06-01T10:55:27.556Z,58.00
2023-06-01T11:00:41.864Z,57.78
2023-06-01T11:05:53.771Z,57.43
2023-06-01T11:11:05.189Z,57.87
2023-06-01T11:16:26.209Z,57.63
2023-06-01T11:21:44.641Z,57.88
2023-06-01T11:26:53.695Z,57.60
2023-06-01T11:32:04.753Z,58.33
2023-06-01T11:37:21.165Z,57.98
2023-06-01T11:42:33.328Z,57.93
2023-06-01T11:47:40.861Z,58.25
2023-06-01T11:52:49.818Z,58.53
2023-06-01T11:57:59.572Z,57.60
2023-06-01T12:03:10.385Z,57.80
2023-06-01T12:08:22.193Z,57.77
2023-06-01T12:13:31.189Z,57.90
2023-06-01T12:18:38.157Z,58.28
2023-06-01T12:23:53.034Z,57.58
2023-06-01T12:29:01.473Z,57.83
2023-06-01T12:34:18.108Z,58.57
2023-06-01T12:39:38.456Z,58.42
2023-06-01T12:44:47.394Z,58.33
2023-06-01T12:50:12.791Z,58.55
2023-06-01T12:55:21.316Z,57.90
2023-06-01T13:00:39.446Z,57.83
2023-06-01T13:05:36.672Z,58.07
2023-06-01T13:10:44.817Z,57.93
2023-06-01T13:15:52.070Z,58.40
2023-06-01T13:20:59.532Z,57.70
2023-06-01T13:26:07.066Z,58.47
2023-06-01T13:31:14.831Z,58.00
2023-06-01T13:36:23.349Z,58.33
2023-06-01T13:41:32.119Z,58.87
2023-06-01T13:46:40.379Z,58.05
2023-06-01T13:51:47.961Z,58.40
2023-06-01T13:56:55.060Z,57.73
2023-06-01T14:02:02.063Z,58.55
2023-06-01T14:07:09.182Z,59.10
2023-06-01T14:12:16.706Z,58.00
2023-06-01T14:17:23.935Z,58.43
2023-06-01T14:22:30.446Z,58.23
2023-06-01T14:27:38.677Z,58.00
2023-06-01T14:32:46.650Z,57.95
2023-06-01T14:37:54.123Z,58.13
2023-06-01T14:43:02.341Z,57.90
2023-06-01T14:48:09.640Z,58.43
2023-06-01T14:53:17.335Z,58.50
2023-06-01T14:58:24.294Z,58.00
2023-06-01T15:03:31.225Z,58.03
2023-06-01T15:08:39.602Z,58.33
2023-06-01T15:13:46.202Z,57.70
2023-06-01T15:18:53.558Z,58.02
2023-06-01T15:24:00.959Z,57.67
2023-06-01T15:29:09.107Z,56.80
2023-06-01T15:34:16.847Z,57.07
2023-06-01T15:39:24.854Z,57.17
2023-06-01T15:44:31.868Z,57.77
2023-06-01T15:49:41.071Z,57.53
2023-06-01T15:54:48.996Z,58.48
2023-06-01T15:59:58.214Z,57.20
2023-06-01T16:05:05.500Z,58.37
2023-06-01T16:10:14.028Z,59.85
2023-06-01T16:15:21.306Z,58.13
2023-06-01T16:20:29.401Z,57.35
2023-06-01T16:25:36.453Z,57.70
2023-06-01T16:30:43.134Z,57.03
2023-06-01T16:35:50.142Z,56.83
2023-06-01T16:40:57.443Z,57.07
2023-06-01T16:46:04.849Z,57.20
2023-06-01T16:51:12.364Z,57.23
2023-06-01T16:56:19.639Z,57.33
2023-06-01T17:01:28.123Z,57.03
2023-06-01T17:06:35.668Z,56.35
2023-06-01T17:11:42.660Z,57.40
2023-06-01T17:16:50.925Z,57.50
2023-06-01T17:21:58.505Z,56.77
2023-06-01T17:27:06.981Z,56.43
2023-06-01T17:32:14.305Z,57.13
2023-06-01T17:37:22.406Z,56.40
2023-06-01T17:42:29.593Z,56.80
2023-06-01T17:47:36.880Z,56.55
2023-06-01T17:52:43.829Z,56.15
2023-06-01T17:57:53.730Z,56.33
2023-06-01T18:03:01.036Z,57.03
2023-06-01T18:08:08.690Z,56.77
2023-06-01T18:13:16.241Z,56.50
2023-06-01T18:18:23.355Z,56.98
2023-06-01T18:23:30.605Z,56.98
2023-06-01T18:28:38.342Z,56.63
2023-06-01T18:33:46.065Z,56.43
2023-06-01T18:38:53.641Z,56.40
2023-06-01T18:44:01.157Z,55.87
2023-06-01T18:49:09.069Z,55.30
2023-06-01T18:54:16.107Z,55.87
2023-06-01T18:59:23.775Z,56.18
2023-06-01T19:04:30.575Z,56.10
2023-06-01T19:09:44.266Z,55.80
2023-06-01T19:14:56.219Z,56.07
2023-06-01T19:20:05.308Z,55.45
2023-06-01T19:25:13.394Z,55.33
2023-06-01T19:30:22.859Z,55.63
2023-06-01T19:35:33.304Z,55.90
2023-06-01T19:40:48.983Z,55.95
2023-06-01T19:46:10.537Z,55.38
2023-06-01T19:51:20.898Z,55.17
2023-06-01T19:56:44.483Z,54.73
2023-06-01T20:01:54.477Z,54.90
2023-06-01T20:07:04.829Z,54.90
2023-06-01T20:12:16.332Z,55.57
2023-06-01T20:17:25.042Z,55.23
2023-06-01T20:22:33.432Z,54.73
2023-06-01T20:27:41.357Z,54.20
2023-06-01T20:32:50.180Z,54.13
2023-06-01T20:37:59.469Z,55.70
2023-06-01T20:43:08.773Z,54.67
2023-06-01T20:48:20.526Z,54.93
2023-06-01T20:53:29.674Z,54.90
2023-06-01T20:58:37.244Z,53.83
2023-06-01T21:03:44.040Z,53.67
2023-06-01T21:08:55.908Z,53.53
2023-06-01T21:14:03.190Z,55.97
2023-06-01T21:19:10.310Z,56.53
2023-06-01T21:24:29.354Z,56.42
2023-06-01T21:29:37.680Z,56.37
2023-06-01T21:34:44.503Z,53.92
2023-06-01T21:39:51.521Z,53.90
2023-06-01T21:45:01.722Z,53.20
2023-06-01T21:50:09.885Z,54.80
2023-06-01T21:55:18.089Z,55.00
2023-06-01T22:00:25.329Z,54.10
2023-06-01T22:05:34.273Z,53.67
2023-06-01T22:10:42.239Z,53.25
2023-06-01T22:15:49.214Z,53.97
2023-06-01T22:20:56.604Z,54.07
2023-06-01T22:26:04.733Z,53.87
2023-06-01T22:31:12.790Z,53.90
2023-06-01T22:36:19.252Z,54.80
2023-06-01T22:41:26.871Z,53.60
2023-06-01T22:46:34.071Z,53.80
2023-06-01T22:51:43.112Z,53.20
2023-06-01T22:56:50.487Z,52.87
2023-06-01T23:01:58.220Z,52.40
2023-06-01T23:07:09.740Z,52.27
2023-06-01T23:12:21.323Z,52.83
2023-06-01T23:17:29.969Z,52.03
2023-06-01T23:22:38.624Z,52.83
2023-06-01T23:27:46.398Z,52.63
2023-06-01T23:32:54.894Z,51.87
2023-06-01T23:38:02.295Z,51.83
2023-06-01T23:43:09.651Z,51.87
2023-06-01T23:48:17.413Z,51.57
2023-06-01T23:53:27.886Z,51.40
2023-06-01T23:58:35.858Z,52.47
